Huron Regional Airport
KHON : now visible

Airfield :











YOU CAN JOIN US ON...

 
LOGIN :

Register | Disclaimer

   EN    FR    IT 

 









Legend :    VFR   Marginal VFR   IFR   Intensive IFR   Very Intensive IFR
Visi :
Ceiling :
>= 8 km
>= 3000ft
5 to 8 km
1000 to 3000 ft
1500m to 5 km
500 to 1000 ft
800 to 1500m
200 to 500 ft
< 800m
< 200 ft
Symbols :   Thunderstorms  Fog  Heavy snow  Heavy precipitations  Wind > 20 kt






- Airport Elevation : 1289 ft
- IATA code : HON


KHON - Huron Regional

CURRENT METAR :
  • 200655Z AUTO 24005KT 10SM FEW085 BKN110 10/07 A2944 RMK AO2 SLP965 T01000067

EXPIRED METARs :
  • 200555Z AUTO 22003KT 10SM OVC110 10/07 A2944 RMK AO2 SLP965 60004 T01000072 10133 20094 402670089 58016
  • 200455Z AUTO 26006KT 10SM FEW070 OVC095 10/08 A2947 RMK AO2 RAE26 SLP978 P0000 T01000078

TAF KHON
Valid from the 20 at 06:00 until the 21 at 06:00 UTC


200520Z 2006/2106 27005KT P6SM VCSH BKN080
FM200900 26010KT P6SM OVC150
FM201200 27012G24KT P6SM BKN180
FM201800 29018G32KT P6SM BKN060
FM202200 31017G31KT P6SM BKN028
FM210200 34009KT P6SM BKN035
KZMP FIR / North America



MET'MAP, your aeronautical weather chart ! - Copyright ORBIFLY December 2007 - Disclaimer

ORBIFLY MET'MAP TEAM :

Programming & Development : Alexandra Zaïnal
Original concept : Baudouin d'Aumeries
Technical & hardware support : Manuel Goepfert
Assistance : Marc-Olivier Méhu

Contact : metmap@orbifly.com




SOURCES & CREDITS :

   NOAA       Earth
Advisory